< Typhoon 198311 1983 Season Typhoon 198313 >
Typhoon 198312 (HERBERT)
General InformationTrack Information on Google MapsDetailed Wind InformationList of All Images || Disaster Info.ResourceGoogle EarthGE AnimationAtom FeedGeoJSON
Detalied Best Track (Time Zone = UTC)
Year Month Day Hour Lat. Long. Pressure (hPa) Wind (kt) Class Image Chart
1983 10 6 06 11.0 114.5 1006 0 2 Image Chart
1983 10 6 12 11.0 114.2 1004 0 2 Image Chart
1983 10 6 18 11.1 114.0 1002 0 2 Image Chart
1983 10 7 00 11.3 113.7 1000 35 3 Image Chart
1983 10 7 06 11.5 113.3 998 40 3 Image Chart
1983 10 7 12 11.7 112.8 998 40 3 Image Chart
1983 10 7 18 11.9 112.2 996 40 3 Image Chart
1983 10 8 00 12.1 111.5 996 45 3 Image Chart
1983 10 8 06 12.4 110.8 994 45 3 Image Chart
1983 10 8 12 12.9 110.1 994 45 3 Image Chart
1983 10 8 18 13.3 109.2 996 40 3 Image Chart
1983 10 9 00 13.5 108.5 1000 0 2 Image Chart
1983 10 9 06 13.8 107.7 1000 0 2 Image Chart
1983 10 9 12 14.1 106.8 1000 0 2 Image Chart
1983 10 9 18 14.5 106.0 1004 0 2 Image Chart
1983 10 10 00 15.0 106.0 1006 0 2 Image Chart
1983 10 10 06 15.5 105.0 1006 0 2 Image Chart
1983 10 10 12 16.0 104.0 1006 0 2 Image Chart
1983 10 10 18 16.0 103.0 1006 0 2 Image Chart
1983 10 11 00 16.0 102.0 1007 0 2 Image Chart
1983 10 11 06 16.0 101.0 1006 0 2 Image Chart
1983 10 11 12 16.5 99.0 1004 0 2 Image Chart
Japan Meteorological Agency Best Track Data | Correction Date : 1992-10-21
< Typhoon 198311 1983 Season Typhoon 198313 >

Help